Redwood City, CA

03:16 PDT le 27 Mars 2015 (GMT -0700)
Moffett Federal Air Field | | Change Station
CLOSE
Current Station
Aéroport
Location: Moffett NAS,
Altitude: 39 ft
Stations météo à proximité

Alt. 39 ft 37.41 °N, 122.05 °W | Updated 20 minutes ago

Partiellement nuageux
Partiellement nuageux
60 ° F
Paraît 60 ° F
N
0
Vent Variable Vent de Nord

Aujourd'hui
Haut(e) -- | Bas -- ° F
--% Risque de précip.
Hier
Haut(e) -- | Bas -- ° F
Precip. -- pouce
7:02 AM 7:27 PM
Lune montante, 51% visible
Pression 30.11 pouce
Visibilité 10.0 Miles terrestres
Nuages Ciel dégagé
Point de rosée 54 ° F
Humidité 80%
Précipitations 0.00 pouce
Profondeur de la couche neigeuse Non disponible.
UV 0 sur 12
Pollen 8.90 sur 12
Qualité de l'air Non disponible.
Flu Activity Non disponible.
METAR KNUQ 270956Z AUTO 00000KT 10SM CLR 16/12 A3010 RMK AO2 SLP196 T01560122 TSNO

More Conditions Fewer Conditions

Pression 30.11 pouce
Visibilité 10.0 Miles terrestres
Nuages Ciel dégagé
Point de rosée 54 ° F
Humidité 80%
Précipitations 0.00 pouce
Profondeur de la couche neigeuse Non disponible.
UV 0 sur 12
Pollen 8.90 sur 12
Qualité de l'air Non disponible.
Flu Activity Non disponible.
METAR KNUQ 270956Z AUTO 00000KT 10SM CLR 16/12 A3010 RMK AO2 SLP196 T01560122 TSNO

More Conditions Fewer Conditions

10-Day Weather Forecast

Almanac

Astronomie

Mar. 27, 2015 Lever Coucher
Temps réel
Crépuscule civil
Crépuscule nautique
Crépuscule astronomique
Lune
Durée de lumière visible
Longueur du jour
Tomorrow will be .
, % of the Moon is Illuminated

Extrêmes aujourd'hui

State Highs State Lows

Community

WunderPhotos

Upload Photos

1,808,705 Photos téléchargées !

WunderBlogs® & News

Nearby

Qualité de l'air

  Qualité de l'air Indice de la qualité de l'air Polluant
Not available.

Épaisseur de neige

Station Depth Altitude

Activité sismique

Ville Distance Mag. Time & Date
Minimum magnitude displayed is 2.5.

Températures des eaux côtières

Lieu Température

Stations

Stations météo à proximité

Emplacement de la station Température Refroidissement éolien Point de rosée Humidité Vent Precip. Alt. Mise à jour Type